createdAt,value
2019-02-22T00:02:01.796Z,25.27
2019-02-22T00:04:54.787Z,25.83
2019-02-22T00:07:44.108Z,24.73
2019-02-22T00:10:33.943Z,25.10
2019-02-22T00:13:23.485Z,23.10
2019-02-22T00:16:16.234Z,23.13
2019-02-22T00:19:05.533Z,18.87
2019-02-22T00:21:57.314Z,20.50
2019-02-22T00:24:46.755Z,25.53
2019-02-22T00:27:36.332Z,26.77
2019-02-22T00:30:25.783Z,26.07
2019-02-22T00:33:15.278Z,21.83
2019-02-22T00:36:04.689Z,20.80
2019-02-22T00:38:53.977Z,18.50
2019-02-22T00:41:44.023Z,20.53
2019-02-22T00:44:33.671Z,20.00
2019-02-22T00:47:26.575Z,20.33
2019-02-22T00:50:16.120Z,18.90
2019-02-22T00:53:05.817Z,18.60
2019-02-22T00:55:55.686Z,20.73
2019-02-22T00:58:45.247Z,19.53
2019-02-22T01:01:34.365Z,20.10
2019-02-22T01:04:24.545Z,22.80
2019-02-22T01:07:14.751Z,21.73
2019-02-22T01:10:04.757Z,22.33
2019-02-22T01:12:54.373Z,22.93
2019-02-22T01:15:43.152Z,20.03
2019-02-22T01:18:32.432Z,17.77
2019-02-22T01:21:22.528Z,16.37
2019-02-22T01:24:12.186Z,16.43
2019-02-22T01:27:01.811Z,20.07
2019-02-22T01:29:51.404Z,16.73
2019-02-22T01:32:40.687Z,19.60
2019-02-22T01:35:30.365Z,17.37
2019-02-22T01:38:20.336Z,16.87
2019-02-22T01:41:09.857Z,17.63
2019-02-22T01:43:59.632Z,16.60
2019-02-22T01:46:49.647Z,17.83
2019-02-22T01:49:38.914Z,23.00
2019-02-22T01:52:28.558Z,22.53
2019-02-22T01:55:17.519Z,17.97
2019-02-22T01:58:06.586Z,18.33
2019-02-22T02:00:55.991Z,18.43
2019-02-22T02:03:45.905Z,21.53
2019-02-22T02:06:35.432Z,18.20
2019-02-22T02:09:24.910Z,18.13
2019-02-22T02:12:14.539Z,17.47
2019-02-22T02:15:04.587Z,14.97
2019-02-22T02:17:53.900Z,16.60
2019-02-22T02:20:43.701Z,17.47
2019-02-22T02:23:33.060Z,16.03
2019-02-22T02:26:22.317Z,17.07
2019-02-22T02:29:12.189Z,17.40
2019-02-22T02:32:01.740Z,24.50
2019-02-22T02:34:51.053Z,22.43
2019-02-22T02:37:40.036Z,22.53
2019-02-22T02:40:30.055Z,17.37
2019-02-22T02:43:19.079Z,16.63
2019-02-22T02:46:08.051Z,17.13
2019-02-22T02:48:57.194Z,17.57
2019-02-22T02:51:46.753Z,16.90
2019-02-22T02:54:36.761Z,18.93
2019-02-22T02:57:26.054Z,19.13
2019-02-22T03:00:15.774Z,20.20
2019-02-22T03:03:08.717Z,18.37
2019-02-22T03:06:29.464Z,16.53
2019-02-22T03:09:19.203Z,17.27
2019-02-22T03:12:08.868Z,18.93
2019-02-22T03:14:57.302Z,17.93
2019-02-22T03:17:46.584Z,18.30
2019-02-22T03:20:35.801Z,20.93
2019-02-22T03:23:24.851Z,26.20
2019-02-22T03:26:14.299Z,26.50
2019-02-22T03:29:03.743Z,25.97
2019-02-22T03:31:52.986Z,32.07
2019-02-22T03:34:42.262Z,27.13
2019-02-22T03:37:31.530Z,25.57
2019-02-22T03:40:20.593Z,26.93
2019-02-22T03:43:10.999Z,40.83
2019-02-22T03:46:00.482Z,20.30
2019-02-22T03:48:49.705Z,20.97
2019-02-22T03:51:39.107Z,29.47
2019-02-22T03:54:27.990Z,22.10
2019-02-22T03:57:18.910Z,22.07
2019-02-22T04:00:09.130Z,22.70
2019-02-22T04:02:58.306Z,20.43
2019-02-22T04:05:47.696Z,19.43
2019-02-22T04:08:36.684Z,24.30
2019-02-22T04:11:25.926Z,23.03
2019-02-22T04:14:14.919Z,21.97
2019-02-22T04:17:04.151Z,23.70
2019-02-22T04:19:53.831Z,24.77
2019-02-22T04:22:44.376Z,25.30
2019-02-22T04:25:33.452Z,38.97
2019-02-22T04:28:22.749Z,28.47
2019-02-22T04:31:12.328Z,47.43
2019-02-22T04:34:01.932Z,64.47
2019-02-22T04:36:51.031Z,60.60
2019-02-22T04:39:40.606Z,69.60
2019-02-22T04:42:29.483Z,56.73
2019-02-22T04:45:19.881Z,45.10
2019-02-22T04:48:09.239Z,41.93
2019-02-22T04:50:58.573Z,27.83
2019-02-22T04:53:47.873Z,29.27
2019-02-22T04:56:37.198Z,21.63
2019-02-22T04:59:27.549Z,33.13
2019-02-22T05:02:16.988Z,32.70
2019-02-22T05:05:06.927Z,38.87
2019-02-22T05:07:56.188Z,44.50
2019-02-22T05:10:45.784Z,45.20
2019-02-22T05:13:35.115Z,42.33
2019-02-22T05:16:24.544Z,26.57
2019-02-22T05:19:14.185Z,40.47
2019-02-22T05:22:03.570Z,30.07
2019-02-22T05:24:52.605Z,52.90
2019-02-22T05:27:42.249Z,50.90
2019-02-22T05:30:31.606Z,46.37
2019-02-22T05:33:20.811Z,51.23
2019-02-22T05:36:09.914Z,41.40
2019-02-22T05:38:59.480Z,42.97
2019-02-22T05:41:48.952Z,31.27
2019-02-22T05:44:41.778Z,53.63
2019-02-22T05:47:35.025Z,49.57
2019-02-22T05:50:24.613Z,50.03
2019-02-22T05:53:13.172Z,47.33
2019-02-22T05:56:02.919Z,48.90
2019-02-22T05:58:52.090Z,44.23
2019-02-22T06:01:41.628Z,51.17
2019-02-22T06:04:31.122Z,77.73
2019-02-22T06:07:20.529Z,104.37
2019-02-22T06:10:09.742Z,106.17
2019-02-22T06:12:59.008Z,87.97
2019-02-22T06:15:48.310Z,70.57
2019-02-22T06:18:37.803Z,82.53
2019-02-22T06:21:27.518Z,82.53
2019-02-22T06:24:16.935Z,89.73
2019-02-22T06:27:06.191Z,103.27
2019-02-22T06:29:55.559Z,102.53
2019-02-22T06:32:44.107Z,79.57
2019-02-22T06:35:33.359Z,67.13
2019-02-22T06:38:22.731Z,66.77
2019-02-22T06:41:12.171Z,66.97
2019-02-22T06:44:01.369Z,47.73
2019-02-22T06:46:50.434Z,47.03
2019-02-22T06:49:40.004Z,42.47
2019-02-22T06:52:31.746Z,33.90
2019-02-22T06:55:21.105Z,28.60
2019-02-22T06:58:11.812Z,23.90
2019-02-22T07:01:01.436Z,29.77
2019-02-22T07:03:50.716Z,34.40
2019-02-22T07:06:40.042Z,27.47
2019-02-22T07:09:29.107Z,22.97
2019-02-22T07:12:37.155Z,21.03
2019-02-22T07:15:26.732Z,24.90
2019-02-22T07:18:16.171Z,25.23
2019-02-22T07:21:05.848Z,30.03
2019-02-22T07:23:55.398Z,72.80
2019-02-22T07:26:44.504Z,67.77
2019-02-22T07:29:33.572Z,78.37
2019-02-22T07:32:23.215Z,75.13
2019-02-22T07:35:14.269Z,51.33
2019-02-22T07:38:03.026Z,52.17
2019-02-22T07:40:52.644Z,60.70
2019-02-22T07:43:42.223Z,46.90
2019-02-22T07:46:31.491Z,41.63
2019-02-22T07:49:25.923Z,33.97
2019-02-22T07:52:15.182Z,27.17
2019-02-22T07:55:04.860Z,25.67
2019-02-22T07:57:53.946Z,28.17
2019-02-22T08:00:42.974Z,31.13
2019-02-22T08:03:32.337Z,30.73
2019-02-22T08:06:22.099Z,34.07
2019-02-22T08:08:52.958Z,34.10
2019-02-22T08:11:23.797Z,35.97
2019-02-22T08:13:54.685Z,33.03
2019-02-22T08:16:25.543Z,34.70
2019-02-22T08:19:01.428Z,50.47
2019-02-22T08:21:29.272Z,43.10
2019-02-22T08:24:00.123Z,46.60
2019-02-22T08:26:31.010Z,37.07
2019-02-22T08:29:01.862Z,41.90
2019-02-22T08:31:32.716Z,41.67
2019-02-22T08:34:03.606Z,38.13
2019-02-22T08:36:34.449Z,32.17
2019-02-22T08:39:06.332Z,49.60
2019-02-22T08:41:37.299Z,81.57
2019-02-22T08:44:08.169Z,45.83
2019-02-22T08:46:39.030Z,30.07
2019-02-22T08:49:09.916Z,16.20
2019-02-22T08:51:40.772Z,23.70
2019-02-22T08:54:11.631Z,22.17
2019-02-22T08:56:42.586Z,20.93
2019-02-22T08:59:13.465Z,18.33
2019-02-22T09:01:44.292Z,18.13
2019-02-22T09:04:15.180Z,16.27
2019-02-22T09:06:46.039Z,22.30
2019-02-22T09:09:16.895Z,56.10
2019-02-22T09:11:47.846Z,25.80
2019-02-22T09:14:19.193Z,21.33
2019-02-22T09:16:50.114Z,20.60
2019-02-22T09:19:21.026Z,21.93
2019-02-22T09:21:51.934Z,25.97
2019-02-22T09:24:22.789Z,15.53
2019-02-22T09:26:53.737Z,18.27
2019-02-22T09:29:24.597Z,18.57
2019-02-22T09:31:55.516Z,19.73
2019-02-22T09:34:26.408Z,20.33
2019-02-22T09:36:57.269Z,22.87
2019-02-22T09:39:28.223Z,32.53
2019-02-22T09:41:59.175Z,31.00
2019-02-22T09:44:30.027Z,23.47
2019-02-22T09:47:00.888Z,20.43
2019-02-22T09:49:31.833Z,18.33
2019-02-22T09:52:03.637Z,21.37
2019-02-22T09:54:34.491Z,20.27
2019-02-22T09:57:05.923Z,15.07
2019-02-22T09:59:36.771Z,18.73
2019-02-22T10:02:07.621Z,16.30
2019-02-22T10:04:38.710Z,19.47
2019-02-22T10:07:09.557Z,16.63
2019-02-22T10:09:40.404Z,15.57
2019-02-22T10:12:11.332Z,12.53
2019-02-22T10:14:42.183Z,12.57
2019-02-22T10:17:13.045Z,13.17
2019-02-22T10:19:43.975Z,12.80
2019-02-22T10:22:14.828Z,12.27
2019-02-22T10:24:45.685Z,22.57
2019-02-22T10:27:16.642Z,22.57
2019-02-22T10:29:47.524Z,15.73
2019-02-22T10:32:18.395Z,10.90
2019-02-22T10:34:49.275Z,30.60
2019-02-22T10:37:20.197Z,73.17
2019-02-22T10:39:51.057Z,22.10
2019-02-22T10:42:22.499Z,23.37
2019-02-22T10:44:53.347Z,21.10
2019-02-22T10:47:24.218Z,17.07
2019-02-22T10:49:55.106Z,16.17
2019-02-22T10:52:26.517Z,19.77
2019-02-22T10:54:57.464Z,22.90
2019-02-22T10:57:28.399Z,17.60
2019-02-22T10:59:59.244Z,38.83
2019-02-22T11:02:31.335Z,40.93
2019-02-22T11:05:02.486Z,26.27
2019-02-22T11:07:33.347Z,23.50
2019-02-22T11:10:04.302Z,16.90
2019-02-22T11:12:35.283Z,47.33
2019-02-22T11:15:07.192Z,19.17
2019-02-22T11:17:38.135Z,15.53
2019-02-22T11:20:09.345Z,20.30
2019-02-22T11:22:40.208Z,18.03
2019-02-22T11:25:11.959Z,19.90
2019-02-22T11:27:42.810Z,21.53
2019-02-22T11:30:13.796Z,28.60
2019-02-22T11:32:45.301Z,15.77
2019-02-22T11:35:16.193Z,27.90
2019-02-22T11:37:47.156Z,23.93
2019-02-22T11:40:18.023Z,16.57
2019-02-22T11:42:48.868Z,29.67
2019-02-22T11:45:19.725Z,20.27
2019-02-22T11:47:50.688Z,25.73
2019-02-22T11:50:21.533Z,29.97
2019-02-22T11:52:53.388Z,17.70
2019-02-22T11:55:24.281Z,23.40
2019-02-22T11:57:55.317Z,15.80
2019-02-22T12:00:27.245Z,15.27
2019-02-22T12:02:58.192Z,16.13
2019-02-22T12:05:29.043Z,14.67
2019-02-22T12:07:59.904Z,14.10
2019-02-22T12:10:30.794Z,15.90
2019-02-22T12:13:01.653Z,17.07
2019-02-22T12:15:32.501Z,16.47
2019-02-22T12:18:03.458Z,16.33
2019-02-22T12:20:34.341Z,15.70
2019-02-22T12:23:05.184Z,19.00
2019-02-22T12:25:36.083Z,22.10
2019-02-22T12:28:06.942Z,19.10
2019-02-22T12:30:37.798Z,16.50
2019-02-22T12:33:08.763Z,16.27
2019-02-22T12:35:39.610Z,19.10
2019-02-22T12:38:10.470Z,14.03
2019-02-22T12:40:41.435Z,14.73
2019-02-22T12:43:12.294Z,27.50
2019-02-22T12:45:43.135Z,17.20
